aviador You're here:

KAHN Decoded Metar

ATHENS in GA, USA
Report Time2017-11-21 05:51:00
UTC Time2017-11-21 06:11:36
Flight Rules vfr VFR
Wind060° at 04 kt
W.Decomp.*RWY 09: 3.6 kt HW 1.8 kt LCW
RWY 02: 2.9 kt HW 2.7 kt RCW
W.Rank060° ranks 2
Current wind is below 060° avg. (6.1)
Visibility9999 m
Phenomena:N/A
Clouds:Overcast 044 Hf
Expected CloudBase > 1,200 ft AGL from Temp-Dew spread
Ceiling4,400 ft
Temp06°C (ISA -7)
Dew Point03°C (81% RH)
AAT3.1°C
QNH1023 hPa
Density Alt-325 ft
Elevation801 ft
Report Wrong Elevation
Raw Report
METAR KAHN 210551Z AUTO 06004KT 10SM OVC044 06/03 A3021 RMK AO2 SLP231
T00610033 10061 20028 51001=

Extra information for KAHN:More info

Metar Taf Metar & Taf Last 4 Metars F.Rules Stats Wind Profile Meteogram Temp Stats Airport Information Weather charts Add Link Nearby VenuesMetar ALERT Operation Metar Decoded Social comments

AIRNAV info for KAHN